Time;durP1;ratioP1;P1;durP2;ratioP2;P2;SDS_P1;SDS_P2;PMS_P1;PMS_P2;Temp;Humidity;BMP_temperature;BMP_pressure;BME280_temperature;BME280_humidity;BME280_pressure;Samples;Min_cycle;Max_cycle;Signal;HPM_P1;HPM_P2
2024/01/12 00:00:09;;;;;;;25.73;18.48;;;2.40;94.30;;;;;;5055933;28;20219;-35
2024/01/12 00:02:41;;;;;;;22.73;18.63;;;2.40;94.30;;;;;;5056890;28;20209;-33
2024/01/12 00:05:08;;;;;;;23.63;17.58;;;2.40;94.20;;;;;;5059301;28;20250;-35
2024/01/12 00:07:34;;;;;;;23.65;17.17;;;2.40;94.20;;;;;;5062692;28;20199;-31
2024/01/12 00:10:01;;;;;;;23.30;17.57;;;2.40;94.20;;;;;;5057723;28;21028;-35
2024/01/12 00:12:27;;;;;;;20.70;15.73;;;2.40;94.30;;;;;;5059113;28;20429;-37
2024/01/12 00:14:53;;;;;;;22.63;17.23;;;2.40;94.20;;;;;;5073728;28;20196;-36
2024/01/12 00:17:22;;;;;;;23.08;17.25;;;2.40;94.20;;;;;;5058808;28;20979;-34
2024/01/12 00:19:48;;;;;;;21.38;15.63;;;2.40;94.20;;;;;;5036693;28;20198;-33
2024/01/12 00:22:18;;;;;;;23.08;16.30;;;2.40;94.30;;;;;;5058795;28;20231;-33
2024/01/12 00:24:45;;;;;;;23.00;16.70;;;2.40;94.20;;;;;;5074582;28;20211;-31
2024/01/12 00:27:10;;;;;;;23.13;16.33;;;2.40;94.20;;;;;;5057323;28;20199;-33
2024/01/12 00:29:38;;;;;;;23.73;16.63;;;2.40;94.30;;;;;;5058866;28;20481;-33
2024/01/12 00:32:05;;;;;;;20.85;15.60;;;2.40;94.30;;;;;;5055996;28;20438;-30
2024/01/12 00:34:32;;;;;;;20.83;15.82;;;2.40;94.20;;;;;;5058255;28;20249;-33
2024/01/12 00:36:58;;;;;;;22.83;17.20;;;2.40;94.60;;;;;;5039700;28;20220;-33
2024/01/12 00:39:27;;;;;;;19.67;15.38;;;2.40;94.20;;;;;;5058126;28;20212;-31
2024/01/12 00:41:54;;;;;;;22.85;15.57;;;2.40;94.20;;;;;;5056275;28;20465;-36
2024/01/12 00:44:21;;;;;;;23.10;16.08;;;2.40;94.20;;;;;;5056693;28;20265;-31
2024/01/12 00:46:52;;;;;;;22.20;16.13;;;2.40;94.30;;;;;;5053544;28;20202;-38
2024/01/12 00:49:19;;;;;;;21.52;14.98;;;2.40;94.30;;;;;;5058339;28;20207;-34
2024/01/12 00:51:45;;;;;;;24.17;16.15;;;2.40;94.30;;;;;;5056207;28;20270;-33
2024/01/12 00:54:11;;;;;;;20.75;16.33;;;2.40;94.30;;;;;;5058398;28;20552;-33
2024/01/12 00:56:37;;;;;;;28.30;15.82;;;2.50;94.40;;;;;;5055903;28;20227;-33
2024/01/12 00:59:05;;;;;;;19.98;14.93;;;2.40;94.30;;;;;;5056581;28;20761;-31
2024/01/12 01:01:31;;;;;;;21.52;15.98;;;2.50;94.40;;;;;;5057821;28;20267;-35
2024/01/12 01:04:00;;;;;;;24.52;15.45;;;2.50;94.40;;;;;;5058580;28;20199;-34
2024/01/12 01:06:27;;;;;;;19.67;15.00;;;2.50;94.40;;;;;;5058589;28;20187;-29
2024/01/12 01:08:54;;;;;;;19.48;15.80;;;2.50;94.40;;;;;;5057403;28;20634;-34
2024/01/12 01:11:23;;;;;;;23.95;15.27;;;2.50;94.50;;;;;;5074680;28;20337;-35
2024/01/12 01:13:49;;;;;;;20.00;14.93;;;2.50;94.50;;;;;;5057916;28;20288;-34
2024/01/12 01:16:17;;;;;;;20.67;14.80;;;2.50;94.40;;;;;;5058695;28;20215;-34
2024/01/12 01:18:43;;;;;;;23.17;15.35;;;2.50;94.40;;;;;;5057910;28;20243;-33
2024/01/12 01:21:09;;;;;;;23.23;15.82;;;2.50;94.50;;;;;;5053227;28;20184;-32
2024/01/12 01:23:36;;;;;;;24.25;15.30;;;2.50;94.50;;;;;;5073535;28;20638;-34
2024/01/12 01:26:04;;;;;;;20.83;14.15;;;2.50;94.50;;;;;;5058515;28;20195;-34
2024/01/12 01:28:30;;;;;;;21.05;14.85;;;2.50;94.50;;;;;;5062613;28;20533;-34
2024/01/12 01:30:58;;;;;;;22.02;16.30;;;2.50;94.50;;;;;;5061925;28;20211;-35
2024/01/12 01:33:24;;;;;;;22.08;15.70;;;2.50;94.50;;;;;;5060362;28;20203;-36
2024/01/12 01:35:50;;;;;;;21.93;15.47;;;2.50;94.50;;;;;;5059774;28;20211;-33
2024/01/12 01:38:16;;;;;;;22.70;14.82;;;2.50;94.50;;;;;;5040080;28;20447;-35
2024/01/12 01:40:42;;;;;;;24.83;16.37;;;2.50;94.50;;;;;;5058791;28;20196;-33
2024/01/12 01:43:12;;;;;;;23.33;15.10;;;2.50;94.50;;;;;;5061775;28;20465;-31
2024/01/12 01:45:38;;;;;;;21.55;14.45;;;2.50;94.50;;;;;;5062319;28;20202;-31
2024/01/12 01:48:08;;;;;;;21.45;15.57;;;2.50;94.50;;;;;;5060281;28;23661;-35
2024/01/12 01:50:36;;;;;;;24.90;16.25;;;2.50;94.50;;;;;;5043552;28;20599;-34
2024/01/12 01:53:03;;;;;;;20.52;15.73;;;2.50;94.50;;;;;;5061549;28;21013;-36
2024/01/12 01:55:30;;;;;;;21.02;14.48;;;2.50;94.50;;;;;;5060438;28;20226;-35
2024/01/12 01:57:59;;;;;;;23.55;14.63;;;2.50;94.50;;;;;;5061006;28;20184;-32
2024/01/12 02:00:28;;;;;;;25.90;15.65;;;2.50;94.50;;;;;;5060185;28;20632;-35
2024/01/12 02:02:55;;;;;;;20.83;14.70;;;2.50;94.50;;;;;;5062168;28;20936;-35
2024/01/12 02:05:22;;;;;;;21.58;13.93;;;2.50;94.50;;;;;;5059711;28;20200;-34
2024/01/12 02:07:48;;;;;;;18.98;14.30;;;2.50;94.60;;;;;;5060629;28;20717;-32
2024/01/12 02:10:14;;;;;;;23.33;15.88;;;2.50;94.60;;;;;;5062132;28;20207;-36
2024/01/12 02:12:40;;;;;;;25.20;15.43;;;2.50;94.60;;;;;;5061104;28;20668;-34
2024/01/12 02:15:07;;;;;;;23.63;15.50;;;2.60;94.60;;;;;;5060028;28;20699;-34
2024/01/12 02:17:34;;;;;;;25.80;16.17;;;2.60;94.70;;;;;;5059071;28;20226;-35
2024/01/12 02:20:00;;;;;;;18.98;13.60;;;2.50;94.60;;;;;;5059413;28;20348;-36
2024/01/12 02:22:28;;;;;;;25.17;15.27;;;2.60;94.70;;;;;;5061167;28;21041;-30
2024/01/12 02:24:54;;;;;;;25.42;15.10;;;2.50;94.70;;;;;;5060002;28;20250;-31
2024/01/12 02:27:21;;;;;;;24.25;15.48;;;2.60;94.70;;;;;;5059609;28;20184;-38
2024/01/12 02:29:51;;;;;;;24.00;15.77;;;2.60;94.60;;;;;;5060852;28;20265;-36
2024/01/12 02:32:20;;;;;;;22.35;14.40;;;2.60;94.70;;;;;;5059398;28;20274;-34
2024/01/12 02:34:46;;;;;;;23.70;14.85;;;2.60;94.70;;;;;;5076454;28;20216;-33
2024/01/12 02:37:12;;;;;;;20.40;14.30;;;2.60;94.70;;;;;;5061288;28;20299;-32
2024/01/12 02:39:38;;;;;;;23.85;15.30;;;2.60;94.60;;;;;;5040215;28;20516;-31
2024/01/12 02:42:04;;;;;;;27.17;15.37;;;2.60;94.60;;;;;;5060804;28;20559;-32
2024/01/12 02:44:32;;;;;;;21.70;13.68;;;2.60;94.70;;;;;;5059564;28;20507;-32
2024/01/12 02:46:58;;;;;;;24.30;14.73;;;2.60;94.70;;;;;;5058423;28;20229;-31
2024/01/12 02:49:25;;;;;;;29.40;14.13;;;2.60;94.70;;;;;;5058977;28;20500;-34
2024/01/12 02:51:51;;;;;;;20.98;13.85;;;2.60;94.70;;;;;;5058656;28;21078;-32
2024/01/12 02:54:17;;;;;;;23.55;14.70;;;2.60;94.70;;;;;;5042227;28;20242;-32
2024/01/12 02:56:43;;;;;;;22.42;15.15;;;2.60;94.70;;;;;;5057627;28;20789;-30
2024/01/12 02:59:09;;;;;;;20.30;15.05;;;2.60;94.70;;;;;;5057164;28;20216;-32
2024/01/12 03:01:35;;;;;;;23.97;15.13;;;2.60;94.70;;;;;;5040446;28;20192;-31
2024/01/12 03:04:03;;;;;;;20.02;14.73;;;2.60;94.70;;;;;;5058706;28;20521;-33
2024/01/12 03:06:32;;;;;;;22.17;14.63;;;2.60;94.80;;;;;;5059314;28;20287;-31
2024/01/12 03:08:58;;;;;;;21.55;14.90;;;2.60;94.70;;;;;;5055818;28;20204;-30
2024/01/12 03:11:24;;;;;;;22.90;14.50;;;2.60;94.80;;;;;;5059627;28;20263;-31
2024/01/12 03:13:50;;;;;;;24.67;15.15;;;2.60;95.10;;;;;;5058115;28;21047;-30
2024/01/12 03:16:20;;;;;;;23.33;14.77;;;2.60;94.70;;;;;;5056511;28;20268;-31
2024/01/12 03:18:48;;;;;;;22.55;14.10;;;2.60;94.70;;;;;;5058136;28;20299;-33
2024/01/12 03:21:18;;;;;;;19.67;14.18;;;2.70;94.70;;;;;;5040585;28;20219;-31
2024/01/12 03:23:49;;;;;;;23.50;15.15;;;2.60;94.70;;;;;;5074207;28;20675;-32
2024/01/12 03:26:17;;;;;;;22.90;14.18;;;2.70;95.10;;;;;;5054762;28;20216;-31
2024/01/12 03:28:44;;;;;;;26.05;14.88;;;2.60;94.70;;;;;;5040879;28;20331;-34
2024/01/12 03:33:48;;;;;;;23.98;15.77;;;2.60;94.80;;;;;;4975208;28;20245;-33
2024/01/12 03:36:19;;;;;;;22.58;15.55;;;2.70;94.80;;;;;;4979894;28;20222;-37
2024/01/12 03:38:45;;;;;;;25.35;15.18;;;2.70;94.80;;;;;;4987694;28;20210;-38
2024/01/12 03:41:11;;;;;;;22.40;15.32;;;2.70;94.90;;;;;;4981257;28;20182;-35
2024/01/12 03:43:37;;;;;;;21.10;13.48;;;2.70;94.90;;;;;;4999394;28;20198;-34
2024/01/12 03:46:04;;;;;;;25.20;15.50;;;2.70;94.90;;;;;;4999551;28;20186;-34
2024/01/12 03:48:35;;;;;;;24.50;14.35;;;2.70;94.90;;;;;;4998483;28;20463;-31
2024/01/12 03:51:01;;;;;;;22.45;13.88;;;2.70;94.90;;;;;;4999213;28;20269;-34
2024/01/12 03:53:28;;;;;;;25.65;14.98;;;2.70;94.90;;;;;;4999483;28;20225;-35
2024/01/12 03:55:54;;;;;;;22.25;14.13;;;2.70;94.90;;;;;;4996549;28;20348;-37
2024/01/12 03:58:20;;;;;;;18.85;13.77;;;2.60;94.90;;;;;;4998342;28;20221;-36
2024/01/12 04:00:46;;;;;;;24.90;15.13;;;2.70;94.90;;;;;;4999038;28;20174;-35
2024/01/12 04:03:12;;;;;;;22.55;13.70;;;2.70;94.90;;;;;;4999923;28;20436;-32
2024/01/12 04:05:38;;;;;;;22.20;13.48;;;2.70;94.90;;;;;;4997739;28;20200;-33
2024/01/12 04:08:04;;;;;;;20.45;13.95;;;2.70;94.90;;;;;;4999449;28;20228;-34
2024/01/12 04:10:32;;;;;;;27.38;15.02;;;2.70;95.00;;;;;;4996677;28;20299;-34
2024/01/12 04:12:59;;;;;;;22.13;14.52;;;2.70;95.00;;;;;;4982338;28;20189;-33
2024/01/12 04:15:25;;;;;;;25.98;14.15;;;2.70;95.00;;;;;;4999462;28;20639;-36
2024/01/12 04:17:54;;;;;;;19.35;12.40;;;2.70;95.00;;;;;;4982405;28;20650;-37
2024/01/12 04:20:20;;;;;;;21.33;14.77;;;2.70;95.00;;;;;;5000168;28;20194;-33
2024/01/12 04:22:46;;;;;;;28.33;14.43;;;2.70;95.00;;;;;;4999768;28;20590;-34
2024/01/12 04:25:14;;;;;;;25.23;15.55;;;2.70;95.00;;;;;;5000134;28;20243;-37
2024/01/12 04:27:43;;;;;;;30.92;15.70;;;2.70;95.00;;;;;;4992258;28;20676;-34
2024/01/12 04:30:09;;;;;;;23.75;13.35;;;2.70;95.10;;;;;;5000359;28;20320;-35
2024/01/12 04:32:35;;;;;;;24.52;15.57;;;2.70;95.10;;;;;;5002103;28;20197;-30
2024/01/12 04:35:03;;;;;;;23.07;14.30;;;2.70;95.10;;;;;;5007096;28;20190;-30
2024/01/12 04:37:29;;;;;;;22.83;13.80;;;2.70;95.10;;;;;;5003051;28;20424;-32
2024/01/12 04:39:55;;;;;;;22.13;14.17;;;2.70;95.00;;;;;;4999650;28;20611;-30
2024/01/12 04:42:21;;;;;;;27.05;15.27;;;2.70;95.00;;;;;;5001756;28;21222;-32
2024/01/12 04:44:47;;;;;;;27.58;14.85;;;2.70;95.00;;;;;;5001267;28;20193;-32
2024/01/12 04:47:13;;;;;;;25.47;15.20;;;2.70;95.00;;;;;;5000932;28;20244;-34
2024/01/12 04:49:41;;;;;;;23.55;14.90;;;2.70;95.00;;;;;;4985485;28;21205;-32
2024/01/12 04:52:07;;;;;;;24.00;14.13;;;2.70;95.10;;;;;;5000050;28;20189;-33
2024/01/12 04:54:33;;;;;;;24.55;15.00;;;2.70;95.10;;;;;;4987379;28;20456;-31
2024/01/12 04:56:59;;;;;;;30.50;16.23;;;2.80;95.10;;;;;;4997866;28;20214;-33
2024/01/12 04:59:25;;;;;;;23.27;15.27;;;2.80;95.10;;;;;;4999704;28;20484;-30
2024/01/12 05:01:51;;;;;;;22.30;14.85;;;2.80;95.10;;;;;;4986463;28;20457;-34
2024/01/12 05:04:20;;;;;;;21.95;14.23;;;2.80;95.10;;;;;;5003063;28;20236;-32
2024/01/12 05:06:47;;;;;;;26.35;14.60;;;2.70;95.10;;;;;;5001361;28;20243;-33
2024/01/12 05:09:14;;;;;;;25.83;14.63;;;2.80;95.10;;;;;;4985207;28;21045;-36
2024/01/12 05:11:40;;;;;;;25.52;14.45;;;2.80;95.20;;;;;;5002341;28;20314;-30
2024/01/12 05:14:06;;;;;;;23.97;14.10;;;2.70;95.20;;;;;;4993039;28;20976;-31
2024/01/12 05:16:32;;;;;;;20.75;13.63;;;2.70;95.20;;;;;;5002988;28;20468;-33
2024/01/12 05:18:59;;;;;;;24.60;14.40;;;2.70;95.10;;;;;;5016651;28;20220;-31
2024/01/12 05:21:28;;;;;;;24.02;12.45;;;2.80;95.10;;;;;;5003165;28;20865;-30
2024/01/12 05:23:57;;;;;;;26.20;14.10;;;2.80;95.20;;;;;;5002674;28;20186;-32
2024/01/12 05:26:24;;;;;;;25.43;14.50;;;2.80;95.20;;;;;;5002682;28;20200;-30
2024/01/12 05:28:54;;;;;;;24.10;15.63;;;2.80;95.20;;;;;;5003357;28;20567;-32
2024/01/12 05:31:21;;;;;;;25.08;16.00;;;2.80;95.20;;;;;;5002360;28;20297;-33
2024/01/12 05:33:47;;;;;;;21.25;14.02;;;2.80;95.20;;;;;;5003049;28;20371;-33
2024/01/12 05:36:13;;;;;;;26.85;15.63;;;2.80;95.30;;;;;;4988000;28;20222;-32
2024/01/12 05:38:39;;;;;;;29.60;15.17;;;2.80;95.30;;;;;;5002418;28;20208;-34
2024/01/12 05:41:05;;;;;;;25.75;14.23;;;2.80;95.30;;;;;;5002151;28;20452;-32
2024/01/12 05:43:31;;;;;;;24.98;16.05;;;2.80;95.30;;;;;;5003788;28;20197;-35
2024/01/12 05:46:00;;;;;;;24.13;14.07;;;2.80;95.30;;;;;;5002114;28;20743;-31
2024/01/12 05:48:27;;;;;;;25.20;15.30;;;2.80;95.30;;;;;;4985362;28;20457;-29
2024/01/12 05:50:53;;;;;;;23.20;15.63;;;2.80;95.30;;;;;;5008071;28;20236;-32
2024/01/12 05:53:22;;;;;;;28.93;15.10;;;2.80;95.30;;;;;;5002799;28;21269;-33
2024/01/12 05:55:49;;;;;;;30.75;15.68;;;2.80;95.30;;;;;;5002539;28;20559;-29
2024/01/12 05:58:15;;;;;;;21.65;14.15;;;2.80;95.30;;;;;;5002425;28;20198;-32
2024/01/12 06:00:42;;;;;;;27.30;15.77;;;2.80;95.30;;;;;;5002155;28;20185;-34
2024/01/12 06:03:07;;;;;;;26.27;14.40;;;2.80;95.30;;;;;;5002932;28;20507;-31
2024/01/12 06:05:34;;;;;;;26.23;14.63;;;2.80;95.30;;;;;;5002202;28;20763;-30
2024/01/12 06:08:00;;;;;;;24.77;15.10;;;2.80;95.30;;;;;;5001790;28;20448;-34
2024/01/12 06:10:26;;;;;;;26.52;14.73;;;2.80;95.30;;;;;;4998730;28;20842;-30
2024/01/12 06:12:53;;;;;;;28.37;14.77;;;2.90;95.40;;;;;;5001336;28;20200;-30
2024/01/12 06:15:20;;;;;;;27.33;15.63;;;2.80;95.30;;;;;;4987067;28;20461;-31
2024/01/12 06:17:46;;;;;;;26.55;16.00;;;2.80;95.30;;;;;;4987168;28;20685;-31
2024/01/12 06:20:12;;;;;;;24.30;15.60;;;2.90;95.40;;;;;;5003686;28;20206;-31
2024/01/12 06:22:38;;;;;;;25.38;15.40;;;2.80;95.30;;;;;;5003933;28;20885;-30
2024/01/12 06:25:05;;;;;;;28.30;14.85;;;2.80;95.40;;;;;;5002332;28;20677;-34
2024/01/12 06:27:31;;;;;;;30.15;15.70;;;2.80;95.40;;;;;;5008312;28;20217;-31
2024/01/12 06:29:57;;;;;;;29.27;14.73;;;2.80;95.40;;;;;;5003191;28;20198;-31
2024/01/12 06:32:22;;;;;;;26.37;15.20;;;2.90;95.40;;;;;;5008207;28;20198;-31
2024/01/12 06:34:48;;;;;;;26.53;14.13;;;2.80;95.40;;;;;;4995895;28;20430;-30
2024/01/12 06:37:14;;;;;;;29.30;15.80;;;2.90;95.50;;;;;;5007521;28;20479;-31
2024/01/12 06:39:41;;;;;;;29.02;15.75;;;2.80;95.50;;;;;;5004126;28;20531;-31
2024/01/12 06:42:07;;;;;;;27.95;16.08;;;2.90;95.50;;;;;;5004207;28;20202;-32
2024/01/12 06:44:39;;;;;;;25.25;14.18;;;2.90;95.50;;;;;;5001777;28;20181;-33
2024/01/12 06:47:07;;;;;;;24.10;14.35;;;2.80;95.40;;;;;;4998513;28;20199;-31
2024/01/12 06:49:34;;;;;;;26.67;15.25;;;2.80;95.40;;;;;;5005646;28;20217;-30
2024/01/12 06:52:02;;;;;;;27.25;14.80;;;2.90;95.50;;;;;;5001021;28;20226;-33
2024/01/12 06:54:31;;;;;;;26.23;15.43;;;2.90;95.50;;;;;;5001204;28;20649;-33
2024/01/12 06:56:58;;;;;;;29.75;15.10;;;2.90;95.40;;;;;;4989830;28;20220;-31
2024/01/12 06:59:24;;;;;;;32.83;15.07;;;2.90;95.50;;;;;;4989542;28;20206;-32
2024/01/12 07:01:50;;;;;;;26.73;15.25;;;2.90;95.40;;;;;;4999576;28;20212;-34
2024/01/12 07:04:16;;;;;;;27.40;15.82;;;2.90;95.40;;;;;;4984824;28;20728;-31
2024/01/12 07:06:45;;;;;;;28.67;16.80;;;2.90;95.50;;;;;;5000962;28;20193;-32
2024/01/12 07:09:14;;;;;;;25.48;14.65;;;2.90;95.50;;;;;;4984651;28;20961;-32
2024/01/12 07:11:43;;;;;;;28.20;14.80;;;2.90;95.50;;;;;;5002992;28;20196;-30
2024/01/12 07:14:18;;;;;;;25.95;15.10;;;2.90;95.50;;;;;;4984255;28;20201;-29
2024/01/12 07:16:44;;;;;;;38.35;17.67;;;2.90;95.50;;;;;;5000667;28;20213;-31
2024/01/12 07:19:11;;;;;;;28.10;14.68;;;2.90;95.50;;;;;;5001020;28;20205;-32
2024/01/12 07:21:37;;;;;;;34.28;17.00;;;2.90;95.50;;;;;;5000757;28;20800;-30
2024/01/12 07:24:05;;;;;;;26.45;15.90;;;2.90;95.50;;;;;;5000287;28;20727;-31
2024/01/12 07:26:33;;;;;;;30.67;15.90;;;2.90;95.60;;;;;;5000464;28;20196;-31
2024/01/12 07:29:05;;;;;;;26.83;14.52;;;2.90;95.60;;;;;;4998838;28;20217;-33
2024/01/12 07:31:33;;;;;;;28.48;15.77;;;2.90;95.60;;;;;;5000327;28;20185;-31
2024/01/12 07:33:59;;;;;;;28.80;16.45;;;2.90;95.60;;;;;;5000911;28;20301;-34
2024/01/12 07:36:25;;;;;;;28.17;16.20;;;2.90;95.70;;;;;;4973252;28;20235;-32
2024/01/12 07:38:51;;;;;;;24.30;14.25;;;2.90;95.70;;;;;;4986816;28;20211;-32
2024/01/12 07:41:17;;;;;;;23.57;15.23;;;2.90;95.60;;;;;;4988529;28;20590;-29
2024/01/12 07:43:43;;;;;;;26.55;14.57;;;2.90;95.60;;;;;;5011940;28;20428;-32
2024/01/12 07:46:14;;;;;;;24.23;14.70;;;2.90;95.60;;;;;;4985815;28;20212;-32
2024/01/12 07:48:41;;;;;;;28.42;16.17;;;2.90;95.60;;;;;;4999485;28;20491;-31
2024/01/12 07:51:11;;;;;;;27.10;15.77;;;2.90;95.60;;;;;;4986923;28;20196;-34
2024/01/12 07:53:37;;;;;;;25.95;14.38;;;2.90;95.60;;;;;;4987084;28;20197;-35
2024/01/12 07:56:03;;;;;;;27.70;14.27;;;2.90;95.60;;;;;;4989899;28;20217;-33
2024/01/12 07:58:33;;;;;;;29.52;15.18;;;2.90;95.60;;;;;;5000158;28;20210;-30
2024/01/12 08:01:00;;;;;;;29.33;15.52;;;3.00;95.60;;;;;;5000062;28;20190;-30
2024/01/12 08:03:26;;;;;;;25.65;15.52;;;3.00;95.60;;;;;;4999781;28;20225;-35
2024/01/12 08:05:54;;;;;;;44.35;19.35;;;3.00;95.60;;;;;;4982044;28;20208;-32
2024/01/12 08:08:21;;;;;;;41.08;18.98;;;3.00;96.70;;;;;;4979426;28;20203;-32
2024/01/12 08:10:50;;;;;;;38.05;17.77;;;3.00;97.30;;;;;;4997170;28;20185;-32
2024/01/12 08:13:18;;;;;;;33.75;18.10;;;3.00;97.30;;;;;;4980389;28;20229;-34
2024/01/12 08:15:47;;;;;;;33.47;17.05;;;3.00;97.20;;;;;;4998350;28;20224;-31
2024/01/12 08:18:13;;;;;;;36.50;18.05;;;3.00;96.90;;;;;;4993332;28;20233;-31
2024/01/12 08:20:39;;;;;;;34.47;17.40;;;2.90;96.80;;;;;;4967964;28;20195;-34
2024/01/12 08:23:05;;;;;;;36.80;18.20;;;3.00;96.70;;;;;;4981025;28;20221;-30
2024/01/12 08:25:32;;;;;;;37.13;16.80;;;3.00;96.70;;;;;;4995450;28;20189;-30
2024/01/12 08:28:00;;;;;;;38.53;18.58;;;3.00;96.50;;;;;;4998859;28;20182;-32
2024/01/12 08:30:26;;;;;;;39.50;17.05;;;3.00;96.40;;;;;;4986276;28;20225;-34
2024/01/12 08:32:53;;;;;;;33.13;16.77;;;3.00;96.40;;;;;;4998529;28;20279;-30
2024/01/12 08:35:21;;;;;;;34.92;17.45;;;3.00;96.30;;;;;;4998005;28;20276;-34
2024/01/12 08:37:48;;;;;;;33.30;16.77;;;3.00;96.30;;;;;;4998562;28;20239;-30
2024/01/12 08:40:14;;;;;;;34.47;17.67;;;3.00;96.20;;;;;;4999618;28;20178;-32
2024/01/12 08:42:44;;;;;;;35.20;17.08;;;3.00;96.20;;;;;;4980194;28;20262;-32
2024/01/12 08:45:10;;;;;;;31.20;15.63;;;3.00;96.20;;;;;;4996764;28;20209;-32
2024/01/12 08:47:36;;;;;;;38.60;17.63;;;3.00;96.20;;;;;;4998078;28;20680;-31
2024/01/12 08:50:02;;;;;;;33.78;17.88;;;3.00;96.20;;;;;;4997186;28;20198;-33
2024/01/12 08:52:28;;;;;;;35.45;17.80;;;3.00;96.20;;;;;;4997832;28;20296;-31
2024/01/12 08:54:55;;;;;;;32.25;17.13;;;3.00;96.10;;;;;;5004652;28;20251;-33
2024/01/12 08:57:25;;;;;;;30.77;16.30;;;3.00;96.10;;;;;;4994754;28;20233;-30
2024/01/12 08:59:51;;;;;;;31.98;15.88;;;3.00;96.10;;;;;;4979540;28;21082;-33
2024/01/12 09:02:17;;;;;;;30.38;16.75;;;3.00;96.10;;;;;;4999686;28;20564;-32
2024/01/12 09:04:45;;;;;;;33.85;16.08;;;3.00;96.10;;;;;;5001963;28;20197;-29
2024/01/12 09:07:13;;;;;;;31.58;17.05;;;3.00;96.10;;;;;;4998798;28;20255;-30
2024/01/12 09:09:39;;;;;;;34.30;16.73;;;3.00;96.10;;;;;;4999481;28;20527;-32
2024/01/12 09:12:05;;;;;;;27.45;15.48;;;3.10;96.20;;;;;;4965291;28;20252;-32
2024/01/12 09:14:31;;;;;;;29.70;15.88;;;3.10;96.10;;;;;;4985709;28;20224;-31
2024/01/12 09:16:58;;;;;;;32.42;17.02;;;3.10;96.20;;;;;;5003858;28;20218;-32
2024/01/12 09:19:24;;;;;;;53.10;20.73;;;3.00;96.10;;;;;;4998397;28;20284;-31
2024/01/12 09:21:50;;;;;;;58.05;26.10;;;3.00;96.70;;;;;;4997545;28;20439;-31
2024/01/12 09:24:16;;;;;;;50.95;26.23;;;3.10;97.80;;;;;;4997866;28;20251;-32
2024/01/12 09:26:43;;;;;;;54.40;25.00;;;3.20;98.70;;;;;;4997956;28;20209;-34
2024/01/12 09:29:09;;;;;;;61.28;24.75;;;3.20;99.50;;;;;;4998777;28;20205;-29
2024/01/12 09:31:35;;;;;;;58.03;25.00;;;3.20;99.90;;;;;;4980831;28;20205;-33
2024/01/12 09:34:04;;;;;;;66.82;25.83;;;3.20;99.90;;;;;;4989086;28;20209;-33
2024/01/12 09:36:30;;;;;;;71.10;25.55;;;3.30;99.90;;;;;;4971768;28;20242;-29
2024/01/12 09:38:58;;;;;;;54.97;25.00;;;3.30;99.90;;;;;;4984147;28;20280;-31
2024/01/12 09:42:03;;;;;;;55.97;22.67;;;3.40;99.90;;;;;;4991948;28;20207;-31
2024/01/12 09:44:32;;;;;;;53.00;24.10;;;3.40;99.90;;;;;;4995013;28;20193;-31
2024/01/12 09:46:59;;;;;;;59.13;25.63;;;3.40;99.90;;;;;;5003510;28;20196;-31
2024/01/12 09:49:28;;;;;;;65.13;24.35;;;3.40;99.90;;;;;;5004242;28;20209;-30
2024/01/12 09:52:03;;;;;;;57.35;25.33;;;3.40;99.90;;;;;;5002068;28;20194;-32
2024/01/12 09:54:29;;;;;;;60.60;27.10;;;3.40;99.90;;;;;;5002144;28;20201;-30
2024/01/12 09:56:56;;;;;;;56.45;25.20;;;3.40;99.90;;;;;;4990497;28;20276;-31
2024/01/12 09:59:27;;;;;;;59.28;24.67;;;3.40;99.90;;;;;;4986061;28;20209;-32
2024/01/12 10:01:57;;;;;;;55.50;25.33;;;3.40;99.90;;;;;;4982314;28;20624;-35
2024/01/12 10:04:23;;;;;;;52.17;25.55;;;3.40;99.90;;;;;;5005880;28;20521;-33
2024/01/12 10:06:49;;;;;;;50.77;24.50;;;3.40;99.90;;;;;;4982971;28;20190;-33
2024/01/12 10:09:17;;;;;;;53.03;24.67;;;3.40;99.90;;;;;;5000886;28;20453;-31
2024/01/12 10:11:48;;;;;;;56.53;23.25;;;3.40;99.90;;;;;;5003418;28;20221;-29
2024/01/12 10:14:20;;;;;;;52.00;24.20;;;3.40;99.90;;;;;;5004151;28;20189;-30
2024/01/12 10:16:57;;;;;;;54.17;23.67;;;3.40;99.90;;;;;;4981822;28;20231;-30
2024/01/12 10:19:24;;;;;;;43.75;22.83;;;3.40;99.90;;;;;;4973957;28;20256;-30
2024/01/12 10:21:50;;;;;;;55.22;24.35;;;3.40;99.90;;;;;;4977976;28;20288;-30
2024/01/12 10:24:18;;;;;;;46.70;23.10;;;3.40;99.90;;;;;;4996797;28;20248;-30
2024/01/12 10:26:46;;;;;;;51.65;22.70;;;3.40;99.90;;;;;;4987800;28;20221;-29
2024/01/12 10:29:14;;;;;;;46.10;21.60;;;3.40;99.90;;;;;;4994123;28;20285;-30
2024/01/12 10:31:47;;;;;;;50.47;23.30;;;3.50;99.90;;;;;;4998840;28;20208;-31
2024/01/12 10:34:14;;;;;;;52.63;23.65;;;3.50;99.90;;;;;;4994372;28;20182;-30
2024/01/12 10:36:41;;;;;;;45.53;22.90;;;3.50;99.90;;;;;;4997113;28;20211;-31
2024/01/12 10:39:11;;;;;;;55.15;23.40;;;3.50;99.90;;;;;;4994052;28;21065;-29
2024/01/12 10:41:41;;;;;;;44.10;21.60;;;3.50;99.90;;;;;;4977811;28;20236;-30
2024/01/12 10:44:08;;;;;;;46.58;23.25;;;3.50;99.90;;;;;;4998565;28;20193;-29
2024/01/12 10:46:41;;;;;;;41.45;21.42;;;3.50;99.90;;;;;;4965366;28;20316;-29
2024/01/12 10:49:16;;;;;;;50.78;22.27;;;3.50;99.90;;;;;;4968318;28;20673;-30
2024/01/12 10:52:15;;;;;;;39.17;20.13;;;3.50;99.90;;;;;;4997567;28;20209;-29
2024/01/12 10:54:59;;;;;;;38.95;20.30;;;3.50;99.90;;;;;;4998646;28;21035;-29
2024/01/12 10:57:26;;;;;;;39.60;20.33;;;3.50;99.90;;;;;;4989026;28;20224;-31
2024/01/12 10:59:56;;;;;;;47.85;20.55;;;3.50;99.90;;;;;;4998981;28;20229;-29
2024/01/12 11:02:28;;;;;;;52.70;20.58;;;3.50;99.90;;;;;;4991904;28;20189;-30
2024/01/12 11:04:56;;;;;;;36.05;18.70;;;3.50;99.90;;;;;;4980448;28;20267;-30
2024/01/12 11:07:24;;;;;;;36.30;19.10;;;3.50;99.90;;;;;;4998379;28;20779;-29
2024/01/12 11:09:52;;;;;;;41.83;17.55;;;3.50;99.90;;;;;;5000849;28;20208;-31
2024/01/12 11:12:37;;;;;;;45.30;20.60;;;3.50;99.90;;;;;;4994451;28;20221;-31
2024/01/12 11:15:05;;;;;;;46.88;18.25;;;3.50;99.90;;;;;;4997996;28;20202;-29
2024/01/12 11:17:36;;;;;;;37.92;17.55;;;3.50;99.90;;;;;;4980013;28;20767;-31
2024/01/12 11:20:12;;;;;;;35.00;15.77;;;3.50;99.90;;;;;;4998262;28;20752;-29
2024/01/12 11:22:39;;;;;;;53.55;16.92;;;3.60;99.90;;;;;;4982435;28;20764;-30
2024/01/12 11:25:10;;;;;;;45.28;17.83;;;3.60;99.90;;;;;;4997578;28;21556;-29
2024/01/12 11:27:41;;;;;;;41.05;15.27;;;3.60;99.90;;;;;;4997325;28;20207;-29
2024/01/12 11:30:09;;;;;;;52.95;15.85;;;3.60;99.90;;;;;;4998055;28;20881;-31
2024/01/12 11:32:37;;;;;;;33.97;15.68;;;3.70;99.90;;;;;;4996168;28;20874;-30
2024/01/12 11:35:29;;;;;;;34.75;15.07;;;3.70;99.90;;;;;;4997556;28;20185;-29
2024/01/12 11:38:11;;;;;;;27.38;14.52;;;3.70;99.90;;;;;;4995660;28;20304;-29
2024/01/12 11:40:44;;;;;;;29.10;13.50;;;3.70;99.90;;;;;;4979141;28;20237;-31
2024/01/12 11:43:18;;;;;;;25.85;14.27;;;3.70;99.90;;;;;;4996231;28;20185;-33
2024/01/12 11:45:47;;;;;;;33.80;15.30;;;3.70;99.90;;;;;;4997256;28;20676;-32
2024/01/12 11:48:14;;;;;;;31.85;14.80;;;3.70;99.90;;;;;;4997634;28;20209;-29
2024/01/12 11:50:43;;;;;;;29.67;15.23;;;3.70;99.90;;;;;;4995698;28;20207;-30
2024/01/12 11:53:12;;;;;;;30.75;15.10;;;3.70;99.90;;;;;;4995585;28;20530;-29
2024/01/12 11:55:40;;;;;;;32.72;15.10;;;3.70;99.90;;;;;;4994133;28;20539;-30
2024/01/12 11:58:06;;;;;;;63.65;15.75;;;3.70;99.90;;;;;;4994984;28;20210;-29
2024/01/12 12:00:33;;;;;;;57.55;17.67;;;3.70;99.90;;;;;;4995082;28;20210;-30
2024/01/12 12:02:59;;;;;;;45.70;16.33;;;3.80;99.90;;;;;;4996207;28;20186;-30
2024/01/12 12:05:30;;;;;;;43.97;16.05;;;3.80;99.90;;;;;;4997132;28;20192;-30
2024/01/12 12:07:56;;;;;;;37.38;15.30;;;3.70;99.90;;;;;;4996983;28;20209;-30
2024/01/12 12:10:25;;;;;;;38.40;17.10;;;3.80;99.90;;;;;;4981693;28;20650;-29
2024/01/12 12:12:51;;;;;;;30.45;14.52;;;3.70;99.90;;;;;;4988005;28;20280;-30
2024/01/12 12:15:26;;;;;;;32.97;14.90;;;3.80;99.90;;;;;;4999629;28;20214;-29
2024/01/12 12:17:55;;;;;;;50.05;13.80;;;3.80;99.90;;;;;;4999791;28;20264;-29
2024/01/12 12:20:23;;;;;;;28.42;13.60;;;3.70;99.90;;;;;;5003409;28;20182;-29
2024/01/12 12:22:51;;;;;;;37.10;14.10;;;3.70;99.90;;;;;;4999579;28;20296;-30
2024/01/12 12:25:17;;;;;;;40.10;14.13;;;3.70;99.90;;;;;;5000583;28;20181;-32
2024/01/12 12:27:45;;;;;;;41.57;14.93;;;3.70;99.90;;;;;;5000178;28;20189;-28
2024/01/12 12:30:13;;;;;;;29.48;13.43;;;3.70;99.90;;;;;;4981088;28;20500;-30
2024/01/12 12:32:47;;;;;;;32.58;13.25;;;3.70;99.90;;;;;;4995262;28;20240;-31
2024/01/12 12:35:22;;;;;;;33.60;12.30;;;3.70;99.90;;;;;;4999702;28;20170;-30
2024/01/12 12:37:53;;;;;;;24.23;12.73;;;3.70;99.90;;;;;;4999739;28;20198;-29
2024/01/12 12:40:20;;;;;;;29.55;14.45;;;3.70;99.90;;;;;;4998546;28;20236;-30